Time;durP1;ratioP1;P1;durP2;ratioP2;P2;SDS_P1;SDS_P2;PMS_P1;PMS_P2;Temp;Humidity;BMP_temperature;BMP_pressure;BME280_temperature;BME280_humidity;BME280_pressure;Samples;Min_cycle;Max_cycle;Signal;HPM_P1;HPM_P2
2022/03/25 00:01:09;;;;;;;85.05;38.40;;;;;;;-141.50;100.00;63355.56;5108749;28;20055;-78
2022/03/25 00:03:38;;;;;;;86.97;39.47;;;;;;;-141.50;100.00;63355.56;5110501;28;20189;-78
2022/03/25 00:06:05;;;;;;;81.97;39.20;;;;;;;-141.50;100.00;63355.56;5110002;28;20440;-78
2022/03/25 00:08:31;;;;;;;87.90;38.30;;;;;;;-141.50;100.00;63355.56;5111415;28;20086;-76
2022/03/25 00:10:58;;;;;;;89.43;41.13;;;;;;;-141.50;100.00;63355.56;5109794;28;20088;-78
2022/03/25 00:13:25;;;;;;;89.45;40.42;;;;;;;-141.50;100.00;63355.56;5088369;28;20044;-78
2022/03/25 00:15:51;;;;;;;85.10;37.80;;;;;;;-141.50;100.00;63355.56;5107005;28;20071;-78
2022/03/25 00:18:18;;;;;;;84.85;37.63;;;;;;;-141.50;100.00;63355.56;5110975;28;20051;-77
2022/03/25 00:20:45;;;;;;;90.25;38.95;;;;;;;-141.50;100.00;63355.56;5109350;28;20101;-79
2022/03/25 00:23:12;;;;;;;87.55;38.95;;;;;;;-141.50;100.00;63355.56;5110512;28;20071;-77
2022/03/25 00:25:38;;;;;;;87.65;38.90;;;;;;;-141.50;100.00;63355.56;5091460;28;20047;-78
2022/03/25 00:28:05;;;;;;;87.93;39.17;;;;;;;-141.50;100.00;63355.56;5110022;28;20143;-76
2022/03/25 00:30:33;;;;;;;86.35;38.70;;;;;;;-141.50;100.00;63355.56;5108143;28;20175;-78
2022/03/25 00:33:00;;;;;;;87.35;38.40;;;;;;;-141.50;100.00;63355.56;5109769;28;20498;-77
2022/03/25 00:35:27;;;;;;;82.07;36.85;;;;;;;-141.50;100.00;63355.56;5109697;28;20128;-77
2022/03/25 00:37:53;;;;;;;92.03;39.85;;;;;;;-141.50;100.00;63355.56;5110066;28;20052;-77
2022/03/25 00:40:20;;;;;;;93.70;39.85;;;;;;;-141.50;100.00;63355.56;5108218;28;20059;-77
2022/03/25 00:42:47;;;;;;;91.68;40.45;;;;;;;-141.50;100.00;63355.56;5094518;28;20048;-76
2022/03/25 00:45:14;;;;;;;83.18;38.42;;;;;;;-141.50;100.00;63355.56;5069481;28;20052;-78
2022/03/25 00:47:42;;;;;;;96.95;40.05;;;;;;;-141.50;100.00;63355.56;5088553;28;20090;-78
2022/03/25 00:50:10;;;;;;;95.47;38.35;;;;;;;-141.50;100.00;63355.56;5089076;28;20189;-79
2022/03/25 00:52:37;;;;;;;85.00;38.67;;;;;;;-141.50;100.00;63355.56;5088579;28;20048;-76
2022/03/25 00:55:06;;;;;;;86.07;39.03;;;;;;;-141.50;100.00;63355.56;5070821;28;20109;-77
2022/03/25 00:57:32;;;;;;;91.38;39.45;;;;;;;-141.50;100.00;63355.56;5089562;28;20051;-77
2022/03/25 01:00:00;;;;;;;96.80;41.35;;;;;;;-141.50;100.00;63355.56;5088787;28;20462;-77
2022/03/25 01:02:26;;;;;;;91.72;39.25;;;;;;;-141.50;100.00;63355.56;5090426;28;20148;-77
2022/03/25 01:04:53;;;;;;;89.97;39.72;;;;;;;-141.50;100.00;63355.56;5095420;28;20397;-77
2022/03/25 01:07:19;;;;;;;86.43;38.65;;;;;;;-141.50;100.00;63355.56;5092581;28;20063;-77
2022/03/25 01:09:47;;;;;;;83.70;37.83;;;;;;;-141.50;100.00;63355.56;5088682;28;20083;-77
2022/03/25 01:12:14;;;;;;;82.53;38.25;;;;;;;-141.50;100.00;63355.56;5072052;28;20059;-76
2022/03/25 01:14:41;;;;;;;78.93;38.03;;;;;;;-141.50;100.00;63355.56;5100472;28;20090;-76
2022/03/25 01:17:11;;;;;;;83.72;38.22;;;;;;;-141.50;100.00;63355.56;5108978;28;20047;-77
2022/03/25 01:19:38;;;;;;;85.65;36.80;;;;;;;-141.50;100.00;63355.56;5110058;28;20556;-77
2022/03/25 01:22:05;;;;;;;85.47;37.35;;;;;;;-141.50;100.00;63355.56;5089987;28;20067;-78
2022/03/25 01:24:32;;;;;;;87.35;38.42;;;;;;;-141.50;100.00;63355.56;5091562;28;20047;-74
2022/03/25 01:27:00;;;;;;;92.03;40.55;;;;;;;-141.50;100.00;63355.56;5109017;28;20126;-76
2022/03/25 01:29:27;;;;;;;97.25;42.15;;;;;;;-141.50;100.00;63355.56;5109214;28;20541;-77
2022/03/25 01:31:53;;;;;;;84.53;38.83;;;;;;;-141.50;100.00;63355.56;5108183;28;20093;-77
2022/03/25 01:34:20;;;;;;;94.15;42.70;;;;;;;-141.50;100.00;63355.56;5110386;28;20054;-76
2022/03/25 01:36:47;;;;;;;95.75;39.53;;;;;;;-141.50;100.00;63355.56;5109665;28;20075;-77
2022/03/25 01:39:14;;;;;;;95.82;39.40;;;;;;;-141.50;100.00;63355.56;5109955;28;20505;-77
2022/03/25 01:41:43;;;;;;;89.63;38.88;;;;;;;-141.50;100.00;63355.56;5109995;28;20059;-77
2022/03/25 01:44:11;;;;;;;87.07;39.00;;;;;;;-141.50;100.00;63355.56;5110336;28;20146;-77
2022/03/25 01:46:38;;;;;;;82.05;37.53;;;;;;;-141.50;100.00;63355.56;5109190;28;20077;-79
2022/03/25 01:49:05;;;;;;;92.47;39.03;;;;;;;-141.50;100.00;63355.56;5109359;28;20499;-75
2022/03/25 01:51:36;;;;;;;87.10;39.65;;;;;;;-141.50;100.00;63355.56;5090094;28;20179;-78
2022/03/25 01:54:10;;;;;;;83.63;38.65;;;;;;;-141.50;100.00;63355.56;5109395;28;20055;-76
2022/03/25 01:56:37;;;;;;;97.40;40.30;;;;;;;-141.50;100.00;63355.56;5109025;28;20116;-77
2022/03/25 01:59:04;;;;;;;89.88;40.33;;;;;;;-141.50;100.00;63355.56;5109277;28;20075;-78
2022/03/25 02:01:30;;;;;;;84.47;39.25;;;;;;;-141.50;100.00;63355.56;5116585;28;20510;-78
2022/03/25 02:03:57;;;;;;;99.53;42.42;;;;;;;-141.50;100.00;63355.56;5119480;28;20066;-75
2022/03/25 02:06:24;;;;;;;95.35;41.80;;;;;;;-141.50;100.00;63355.56;5122363;28;20111;-77
2022/03/25 02:08:50;;;;;;;102.00;43.03;;;;;;;-141.50;100.00;63355.56;5111025;28;20079;-77
2022/03/25 02:11:18;;;;;;;96.78;41.17;;;;;;;-141.50;100.00;63355.56;5089086;28;20548;-78
2022/03/25 02:13:45;;;;;;;96.85;41.03;;;;;;;-141.50;100.00;63355.56;5102036;28;20406;-78
2022/03/25 02:16:12;;;;;;;94.75;40.05;;;;;;;-141.50;100.00;63355.56;5106711;28;20051;-78
2022/03/25 02:18:39;;;;;;;87.70;39.72;;;;;;;-141.50;100.00;63355.56;5112411;28;20463;-77
2022/03/25 02:21:06;;;;;;;86.22;39.63;;;;;;;-141.50;100.00;63355.56;5111953;28;20122;-78
2022/03/25 02:23:35;;;;;;;88.53;39.10;;;;;;;-141.50;100.00;63355.56;5112143;28;20090;-75
2022/03/25 02:26:02;;;;;;;91.50;39.50;;;;;;;-141.50;100.00;63355.56;5111884;28;20111;-78
2022/03/25 02:28:29;;;;;;;85.53;39.20;;;;;;;-141.50;100.00;63355.56;5112188;28;20127;-77
2022/03/25 02:30:55;;;;;;;81.65;37.17;;;;;;;-141.50;100.00;63355.56;5110494;28;20043;-75
2022/03/25 02:33:22;;;;;;;85.32;37.78;;;;;;;-141.50;100.00;63355.56;5111295;28;20082;-77
2022/03/25 02:35:50;;;;;;;95.43;37.72;;;;;;;-141.50;100.00;63355.56;5111707;28;20168;-75
2022/03/25 02:38:20;;;;;;;88.25;37.63;;;;;;;-141.50;100.00;63355.56;5112708;28;20047;-75
2022/03/25 02:40:47;;;;;;;88.63;39.67;;;;;;;-141.50;100.00;63355.56;5092376;28;20059;-77
2022/03/25 02:43:14;;;;;;;92.68;38.92;;;;;;;-141.50;100.00;63355.56;5111636;28;20047;-77
2022/03/25 02:45:40;;;;;;;92.05;40.40;;;;;;;-141.50;100.00;63355.56;5111741;28;20048;-75
2022/03/25 02:48:09;;;;;;;89.57;40.72;;;;;;;-141.50;100.00;63355.56;5111764;28;20104;-77
2022/03/25 02:50:35;;;;;;;90.95;40.85;;;;;;;-141.50;100.00;63355.56;5110797;28;20047;-76
2022/03/25 02:53:05;;;;;;;92.07;39.95;;;;;;;-141.50;100.00;63355.56;5111684;28;20048;-78
2022/03/25 02:55:31;;;;;;;97.07;43.17;;;;;;;-141.50;100.00;63355.56;5110827;28;20139;-76
2022/03/25 02:57:58;;;;;;;106.53;43.72;;;;;;;-141.50;100.00;63355.56;5093271;28;20151;-78
2022/03/25 03:00:26;;;;;;;94.45;41.90;;;;;;;-141.50;100.00;63355.56;5110812;28;20142;-77
2022/03/25 03:02:54;;;;;;;96.20;39.55;;;;;;;-141.50;100.00;63355.56;5111255;28;20051;-77
2022/03/25 03:05:22;;;;;;;88.80;38.40;;;;;;;-141.50;100.00;63355.56;5110819;28;20494;-77
2022/03/25 03:07:49;;;;;;;104.35;42.53;;;;;;;-141.50;100.00;63355.56;5112180;28;20054;-78
2022/03/25 03:10:16;;;;;;;99.13;41.92;;;;;;;-141.50;100.00;63355.56;5110862;28;20513;-77
2022/03/25 03:12:43;;;;;;;100.18;43.05;;;;;;;-141.50;100.00;63355.56;5111217;28;20052;-78
2022/03/25 03:15:12;;;;;;;108.22;43.10;;;;;;;-141.50;100.00;63355.56;5102914;28;20070;-77
2022/03/25 03:17:39;;;;;;;91.63;41.58;;;;;;;-141.50;100.00;63355.56;5110852;28;20112;-75
2022/03/25 03:20:06;;;;;;;104.82;42.25;;;;;;;-141.50;100.00;63355.56;5111456;28;20087;-76
2022/03/25 03:22:34;;;;;;;99.40;42.78;;;;;;;-141.50;100.00;63355.56;5110883;28;20047;-77
2022/03/25 03:25:01;;;;;;;105.35;44.88;;;;;;;-141.50;100.00;63355.56;5111633;28;20059;-75
2022/03/25 03:27:27;;;;;;;100.55;43.15;;;;;;;-141.50;100.00;63355.56;5112227;28;20052;-77
2022/03/25 03:29:54;;;;;;;93.18;40.75;;;;;;;-141.50;100.00;63355.56;5107208;28;20047;-76
2022/03/25 03:32:20;;;;;;;97.13;41.70;;;;;;;-141.50;100.00;63355.56;5128158;28;20040;-77
2022/03/25 03:34:47;;;;;;;91.13;40.40;;;;;;;-141.50;100.00;63355.56;5125199;28;20373;-74
2022/03/25 03:37:13;;;;;;;97.38;40.90;;;;;;;-141.50;100.00;63355.56;5117847;28;20082;-76
2022/03/25 03:39:41;;;;;;;98.38;40.70;;;;;;;-141.50;100.00;63355.56;5129814;28;20070;-77
2022/03/25 03:42:08;;;;;;;98.82;41.00;;;;;;;-141.50;100.00;63355.56;5132899;28;20069;-78
2022/03/25 03:44:36;;;;;;;92.40;40.10;;;;;;;-141.50;100.00;63355.56;5132937;28;20054;-79
2022/03/25 03:47:06;;;;;;;87.38;37.38;;;;;;;-141.50;100.00;63355.56;5123077;28;20056;-75
2022/03/25 03:49:33;;;;;;;90.45;38.47;;;;;;;-141.50;100.00;63355.56;5115470;28;20048;-78
2022/03/25 03:52:00;;;;;;;85.95;39.00;;;;;;;-141.50;100.00;63355.56;5111380;28;20508;-78
2022/03/25 03:54:26;;;;;;;84.47;39.28;;;;;;;-141.50;100.00;63355.56;5112116;28;20089;-75
2022/03/25 03:56:54;;;;;;;94.63;39.97;;;;;;;-141.50;100.00;63355.56;5110271;28;20044;-76
2022/03/25 03:59:20;;;;;;;96.43;39.78;;;;;;;-141.50;100.00;63355.56;5110625;28;20047;-76
2022/03/25 04:01:48;;;;;;;98.95;39.05;;;;;;;-141.50;100.00;63355.56;5110040;28;20047;-76
2022/03/25 04:04:15;;;;;;;86.93;37.45;;;;;;;-141.50;100.00;63355.56;5111097;28;20104;-76
2022/03/25 04:06:42;;;;;;;85.00;36.58;;;;;;;-141.50;100.00;63355.56;5110902;28;20127;-78
2022/03/25 04:09:09;;;;;;;91.82;38.75;;;;;;;-141.50;100.00;63355.56;5111278;28;20088;-77
2022/03/25 04:11:35;;;;;;;94.38;38.85;;;;;;;-141.50;100.00;63355.56;5110072;28;20040;-76
2022/03/25 04:14:02;;;;;;;89.90;37.60;;;;;;;-141.50;100.00;63355.56;5102237;28;20101;-76
2022/03/25 04:16:35;;;;;;;85.05;37.38;;;;;;;-141.50;100.00;63355.56;5109842;28;20060;-77
2022/03/25 04:19:02;;;;;;;85.72;37.20;;;;;;;-141.50;100.00;63355.56;5110614;28;20111;-77
2022/03/25 04:21:28;;;;;;;96.07;39.28;;;;;;;-141.50;100.00;63355.56;5109865;28;20048;-76
2022/03/25 04:23:56;;;;;;;89.93;37.45;;;;;;;-141.50;100.00;63355.56;5110381;28;20364;-77
2022/03/25 04:26:24;;;;;;;90.55;38.88;;;;;;;-141.50;100.00;63355.56;5110732;28;20490;-78
2022/03/25 04:28:50;;;;;;;90.20;38.00;;;;;;;-141.50;100.00;63355.56;5092447;28;20478;-76
2022/03/25 04:31:17;;;;;;;94.05;38.72;;;;;;;-141.50;100.00;63355.56;5109884;28;20101;-76
2022/03/25 04:33:44;;;;;;;91.15;39.20;;;;;;;-141.50;100.00;63355.56;5109921;28;20620;-77
2022/03/25 04:36:10;;;;;;;97.30;41.58;;;;;;;-141.50;100.00;63355.56;5078720;28;20102;-76
2022/03/25 04:38:37;;;;;;;92.57;41.15;;;;;;;-141.50;100.00;63355.56;5090715;28;20113;-76
2022/03/25 04:41:04;;;;;;;95.38;40.70;;;;;;;-141.50;100.00;63355.56;5088630;28;20044;-77
2022/03/25 04:43:31;;;;;;;98.93;41.10;;;;;;;-141.50;100.00;63355.56;5090434;28;20094;-76
2022/03/25 04:45:57;;;;;;;98.80;40.65;;;;;;;-141.50;100.00;63355.56;5089966;28;20074;-77
2022/03/25 04:48:24;;;;;;;105.82;41.25;;;;;;;-141.50;100.00;63355.56;5089588;28;20052;-76
2022/03/25 04:50:50;;;;;;;105.97;42.22;;;;;;;-141.50;100.00;63355.56;5089361;28;20232;-76
2022/03/25 04:53:17;;;;;;;99.82;42.33;;;;;;;-141.50;100.00;63355.56;5089441;28;20410;-76
2022/03/25 04:55:44;;;;;;;88.47;40.47;;;;;;;-141.50;100.00;63355.56;5090147;28;20062;-76
2022/03/25 04:58:11;;;;;;;96.53;41.25;;;;;;;-141.50;100.00;63355.56;5086055;28;20086;-77
2022/03/25 05:00:38;;;;;;;99.53;39.65;;;;;;;-141.50;100.00;63355.56;5089139;28;20131;-76
2022/03/25 05:03:05;;;;;;;89.57;40.45;;;;;;;-141.50;100.00;63355.56;5090426;28;20105;-78
2022/03/25 05:05:33;;;;;;;90.30;38.90;;;;;;;-141.50;100.00;63355.56;5089554;28;20055;-76
2022/03/25 05:08:00;;;;;;;95.85;39.85;;;;;;;-141.50;100.00;63355.56;5090642;28;20154;-78
2022/03/25 05:10:27;;;;;;;91.38;38.40;;;;;;;-141.50;100.00;63355.56;5087766;28;20052;-76
2022/03/25 05:13:14;;;;;;;97.35;38.97;;;;;;;-141.50;100.00;63355.56;5097381;28;20047;-77
2022/03/25 05:15:41;;;;;;;93.13;40.40;;;;;;;-141.50;100.00;63355.56;5103493;28;20302;-76
2022/03/25 05:18:08;;;;;;;90.20;39.05;;;;;;;-141.50;100.00;63355.56;5091613;28;20047;-79
2022/03/25 05:20:35;;;;;;;88.13;37.83;;;;;;;-141.50;100.00;63355.56;5109342;28;20423;-76
2022/03/25 05:23:01;;;;;;;96.00;39.88;;;;;;;-141.50;100.00;63355.56;5091881;28;20302;-76
2022/03/25 05:25:28;;;;;;;94.50;39.97;;;;;;;-141.50;100.00;63355.56;5112891;28;20051;-76
2022/03/25 05:27:57;;;;;;;95.22;41.33;;;;;;;-141.50;100.00;63355.56;5118218;28;20063;-77
2022/03/25 05:30:26;;;;;;;91.03;39.88;;;;;;;-141.50;100.00;63355.56;5119195;28;20051;-77
2022/03/25 05:32:54;;;;;;;94.32;40.30;;;;;;;-141.50;100.00;63355.56;5125433;28;20058;-78
2022/03/25 05:35:22;;;;;;;92.68;40.05;;;;;;;-141.50;100.00;63355.56;5126782;28;20078;-78
2022/03/25 05:37:49;;;;;;;91.88;39.00;;;;;;;-141.50;100.00;63355.56;5126273;28;20078;-79
2022/03/25 05:40:17;;;;;;;99.45;39.08;;;;;;;-141.50;100.00;63355.56;5110650;28;20048;-78
2022/03/25 05:42:44;;;;;;;98.53;39.22;;;;;;;-141.50;100.00;63355.56;5108200;28;20124;-78
2022/03/25 05:45:10;;;;;;;92.60;40.28;;;;;;;-141.50;100.00;63355.56;5107736;28;20090;-78
2022/03/25 05:47:38;;;;;;;92.65;39.05;;;;;;;-141.50;100.00;63355.56;5108398;28;20123;-75
2022/03/25 05:50:10;;;;;;;89.47;38.95;;;;;;;-141.50;100.00;63355.56;5107968;28;20049;-77
2022/03/25 05:52:37;;;;;;;87.78;38.80;;;;;;;-141.50;100.00;63355.56;5086362;28;20051;-77
2022/03/25 05:55:07;;;;;;;105.22;40.03;;;;;;;-141.50;100.00;63355.56;5101109;28;20598;-77
2022/03/25 05:57:34;;;;;;;98.78;40.10;;;;;;;-141.50;100.00;63355.56;5095731;28;20125;-77
2022/03/25 06:00:04;;;;;;;98.43;39.53;;;;;;;-141.50;100.00;63355.56;5126261;28;20047;-77
2022/03/25 06:02:31;;;;;;;93.90;39.75;;;;;;;-141.50;100.00;63355.56;5122777;28;20039;-76
2022/03/25 06:04:57;;;;;;;96.22;39.83;;;;;;;-141.50;100.00;63355.56;5112580;28;20067;-77
2022/03/25 06:07:24;;;;;;;93.85;40.92;;;;;;;-141.50;100.00;63355.56;5111173;28;20082;-75
2022/03/25 06:09:52;;;;;;;92.78;39.65;;;;;;;-141.50;100.00;63355.56;5111520;28;20062;-77
2022/03/25 06:12:18;;;;;;;91.10;39.22;;;;;;;-141.50;100.00;63355.56;5107837;28;20463;-75
2022/03/25 06:14:45;;;;;;;100.90;41.22;;;;;;;-141.50;100.00;63355.56;5102840;28;20108;-77
2022/03/25 06:17:11;;;;;;;106.97;44.88;;;;;;;-141.50;100.00;63355.56;5067436;28;20211;-76
2022/03/25 06:19:38;;;;;;;93.38;41.20;;;;;;;-141.50;100.00;63355.56;5065333;28;20556;-79
2022/03/25 06:22:04;;;;;;;88.28;41.85;;;;;;;-141.50;100.00;63355.56;5091439;28;20051;-79
2022/03/25 06:24:31;;;;;;;89.20;39.33;;;;;;;-141.50;100.00;63355.56;5084213;28;20044;-77
2022/03/25 06:26:57;;;;;;;92.85;41.53;;;;;;;-141.50;100.00;63355.56;5102690;28;20147;-76
2022/03/25 06:29:24;;;;;;;90.70;38.85;;;;;;;-141.50;100.00;63355.56;5105883;28;20058;-77
2022/03/25 06:31:51;;;;;;;91.93;39.65;;;;;;;-141.50;100.00;63355.56;5097724;28;20431;-77
2022/03/25 06:34:20;;;;;;;95.20;40.85;;;;;;;-141.50;100.00;63355.56;5077018;28;20105;-78
2022/03/25 06:36:50;;;;;;;89.75;40.38;;;;;;;-141.50;100.00;63355.56;5106029;28;20139;-75
2022/03/25 06:39:17;;;;;;;98.47;40.90;;;;;;;-141.50;100.00;63355.56;5069501;28;20064;-75
2022/03/25 06:41:44;;;;;;;90.32;41.13;;;;;;;-141.50;100.00;63355.56;5086477;28;20111;-75
2022/03/25 06:44:11;;;;;;;85.43;40.10;;;;;;;-141.50;100.00;63355.56;5088142;28;20083;-77
2022/03/25 06:46:37;;;;;;;87.82;40.10;;;;;;;-141.50;100.00;63355.56;5089404;28;20112;-78
2022/03/25 06:49:08;;;;;;;80.47;37.78;;;;;;;-141.50;100.00;63355.56;5098631;28;20068;-78
2022/03/25 06:51:34;;;;;;;86.93;41.50;;;;;;;-141.50;100.00;63355.56;5088075;28;20080;-78
2022/03/25 06:54:01;;;;;;;85.55;40.45;;;;;;;-141.50;100.00;63355.56;5086730;28;20044;-77
2022/03/25 06:56:28;;;;;;;80.38;38.88;;;;;;;-141.50;100.00;63355.56;5090367;28;20052;-76
2022/03/25 06:58:56;;;;;;;83.85;39.00;;;;;;;-141.50;100.00;63355.56;5091284;28;20177;-79
2022/03/25 07:01:22;;;;;;;81.05;38.60;;;;;;;-141.50;100.00;63355.56;5089298;28;20106;-77
2022/03/25 07:03:49;;;;;;;80.75;38.95;;;;;;;-141.50;100.00;63355.56;5105451;28;20047;-76
2022/03/25 07:06:22;;;;;;;75.85;38.83;;;;;;;-141.50;100.00;63355.56;5093257;28;20063;-77
2022/03/25 07:08:53;;;;;;;87.28;39.38;;;;;;;-141.50;100.00;63355.56;5093177;28;20048;-76
2022/03/25 07:11:19;;;;;;;78.95;38.10;;;;;;;-141.50;100.00;63355.56;5110209;28;20274;-76
2022/03/25 07:13:46;;;;;;;76.75;37.30;;;;;;;-141.50;100.00;63355.56;5104134;28;20070;-77
2022/03/25 07:16:13;;;;;;;82.80;37.75;;;;;;;-141.50;100.00;63355.56;5108155;28;20063;-78
2022/03/25 07:18:40;;;;;;;74.03;37.20;;;;;;;-141.50;100.00;63355.56;5111649;28;20047;-77
2022/03/25 07:21:07;;;;;;;77.10;37.83;;;;;;;-141.50;100.00;63355.56;5111495;28;20044;-76
2022/03/25 07:23:34;;;;;;;82.70;39.10;;;;;;;-141.50;100.00;63355.56;5112480;28;20082;-76
2022/03/25 07:26:02;;;;;;;73.88;38.92;;;;;;;-141.50;100.00;63355.56;5094928;28;20052;-76
2022/03/25 07:28:31;;;;;;;74.35;37.30;;;;;;;-141.50;100.00;63355.56;5093622;28;20334;-77
2022/03/25 07:30:57;;;;;;;87.70;40.53;;;;;;;-141.50;100.00;63355.56;5092531;28;20055;-78
2022/03/25 07:33:24;;;;;;;72.28;37.90;;;;;;;-141.50;100.00;63355.56;5086495;28;20080;-75
2022/03/25 07:35:50;;;;;;;72.72;38.78;;;;;;;-141.50;100.00;63355.56;5089822;28;20081;-77
2022/03/25 07:38:17;;;;;;;74.63;37.50;;;;;;;-141.50;100.00;63355.56;5100129;28;20104;-78
2022/03/25 07:40:44;;;;;;;74.32;37.45;;;;;;;-141.50;100.00;63355.56;5111443;28;20059;-79
2022/03/25 07:43:11;;;;;;;78.22;37.28;;;;;;;-141.50;100.00;63355.56;5113702;28;20093;-79
2022/03/25 07:45:39;;;;;;;91.68;43.08;;;;;;;-141.50;100.00;63355.56;5112667;28;20055;-76
2022/03/25 07:48:05;;;;;;;79.40;39.80;;;;;;;-141.50;100.00;63355.56;5114691;28;20048;-78
2022/03/25 07:50:32;;;;;;;71.28;37.97;;;;;;;-141.50;100.00;63355.56;5114460;28;20151;-78
2022/03/25 07:52:59;;;;;;;76.85;36.95;;;;;;;-141.50;100.00;63355.56;5110759;28;20047;-77
2022/03/25 07:55:25;;;;;;;77.03;38.72;;;;;;;-141.50;100.00;63355.56;5090041;28;20098;-78
2022/03/25 07:57:54;;;;;;;77.38;39.15;;;;;;;-141.50;100.00;63355.56;5090717;28;20056;-79
2022/03/25 08:00:20;;;;;;;76.95;36.83;;;;;;;-141.50;100.00;63355.56;5091441;28;20155;-80
2022/03/25 08:02:49;;;;;;;74.10;35.03;;;;;;;-141.50;100.00;63355.56;5096990;28;20082;-79
2022/03/25 08:05:17;;;;;;;72.53;35.28;;;;;;;-141.50;100.00;63355.56;5101456;28;20047;-78
2022/03/25 08:07:44;;;;;;;67.75;32.63;;;;;;;-141.50;100.00;63355.56;5104422;28;20056;-78
2022/03/25 08:10:12;;;;;;;69.43;34.38;;;;;;;-141.50;100.00;63355.56;5091450;28;20048;-79
2022/03/25 08:12:39;;;;;;;64.80;32.35;;;;;;;-141.50;100.00;63355.56;5105535;28;20047;-80
2022/03/25 08:15:07;;;;;;;59.88;31.20;;;;;;;-141.50;100.00;63355.56;5113671;28;20052;-76
2022/03/25 08:17:54;;;;;;;62.05;32.10;;;;;;;-141.50;100.00;63355.56;5101126;28;20051;-76
2022/03/25 08:20:22;;;;;;;71.28;33.78;;;;;;;-141.50;100.00;63355.56;5121401;28;20476;-79
2022/03/25 08:22:49;;;;;;;67.78;33.92;;;;;;;-141.50;100.00;63355.56;5124257;28;20139;-79
2022/03/25 08:28:02;;;;;;;72.00;33.08;;;;;;;-141.50;100.00;63355.56;5104881;28;20044;-77
2022/03/25 08:30:30;;;;;;;64.75;33.90;;;;;;;-141.50;100.00;63355.56;5090683;28;20444;-78
2022/03/25 08:32:57;;;;;;;64.95;33.30;;;;;;;-141.50;100.00;63355.56;5089372;28;20193;-79
2022/03/25 08:35:28;;;;;;;63.67;32.08;;;;;;;-141.50;100.00;63355.56;5072702;28;20858;-78
2022/03/25 08:37:54;;;;;;;74.50;33.00;;;;;;;-141.50;100.00;63355.56;5093163;28;20055;-78
2022/03/25 08:40:22;;;;;;;64.03;32.13;;;;;;;-141.50;100.00;63355.56;5105301;28;20349;-79
2022/03/25 08:42:49;;;;;;;69.28;33.22;;;;;;;-141.50;100.00;63355.56;5115039;28;20054;-78
2022/03/25 08:45:16;;;;;;;56.22;30.50;;;;;;;-141.50;100.00;63355.56;5111844;28;20085;-79
2022/03/25 08:47:45;;;;;;;59.70;32.17;;;;;;;-141.50;100.00;63355.56;5113946;28;20052;-77
2022/03/25 08:50:13;;;;;;;63.92;30.70;;;;;;;-141.50;100.00;63355.56;5116322;28;20069;-79
2022/03/25 08:52:40;;;;;;;59.55;29.15;;;;;;;-141.50;100.00;63355.56;5120354;28;20047;-80
2022/03/25 08:55:10;;;;;;;54.80;28.58;;;;;;;-141.50;100.00;63355.56;5097071;28;20048;-79
2022/03/25 08:57:38;;;;;;;57.47;27.88;;;;;;;-141.50;100.00;63355.56;5091924;28;20083;-78
2022/03/25 09:00:11;;;;;;;58.55;27.90;;;;;;;-141.50;100.00;63355.56;5095757;28;20052;-80
2022/03/25 09:02:40;;;;;;;58.58;28.05;;;;;;;-141.50;100.00;63355.56;5111039;28;20032;-78
2022/03/25 09:05:08;;;;;;;54.63;27.83;;;;;;;-141.50;100.00;63355.56;5111957;28;20032;-80
2022/03/25 09:07:36;;;;;;;59.25;28.75;;;;;;;-141.50;100.00;63355.56;5090750;28;20047;-79
2022/03/25 09:10:07;;;;;;;61.42;27.80;;;;;;;-141.50;100.00;63355.56;5072817;28;20120;-77
2022/03/25 09:12:35;;;;;;;58.42;27.33;;;;;;;-141.50;100.00;63355.56;5095922;28;20063;-78
2022/03/25 09:15:04;;;;;;;52.58;27.35;;;;;;;-141.50;100.00;63355.56;5103370;28;20425;-77
2022/03/25 09:17:31;;;;;;;61.53;26.10;;;;;;;-141.50;100.00;63355.56;5112150;28;20098;-79
2022/03/25 09:19:57;;;;;;;57.33;27.13;;;;;;;-141.50;100.00;63355.56;5117842;28;20048;-77
2022/03/25 09:22:25;;;;;;;58.10;27.10;;;;;;;-141.50;100.00;63355.56;5123699;28;20228;-78
2022/03/25 09:24:55;;;;;;;62.17;27.40;;;;;;;-141.50;100.00;63355.56;5125155;28;20048;-75
2022/03/25 09:27:21;;;;;;;52.72;27.38;;;;;;;-141.50;100.00;63355.56;5101732;28;20071;-78
2022/03/25 09:29:48;;;;;;;56.03;27.38;;;;;;;-141.50;100.00;63355.56;5095939;28;20090;-78
2022/03/25 09:32:14;;;;;;;54.33;26.35;;;;;;;-141.50;100.00;63355.56;5096881;28;20086;-78
2022/03/25 09:37:44;;;;;;;47.03;23.80;;;;;;;-141.50;100.00;63355.56;5095356;28;20075;-78
2022/03/25 09:40:25;;;;;;;50.20;23.63;;;;;;;-141.50;100.00;63355.56;5076326;28;20076;-77
2022/03/25 09:42:55;;;;;;;50.13;25.95;;;;;;;-141.50;100.00;63355.56;5095956;28;20054;-77
2022/03/25 09:45:23;;;;;;;50.72;23.95;;;;;;;-141.50;100.00;63355.56;5098429;28;20539;-80
2022/03/25 09:47:50;;;;;;;48.50;24.35;;;;;;;-141.50;100.00;63355.56;5095975;28;20079;-77
2022/03/25 09:50:23;;;;;;;49.88;25.30;;;;;;;-141.50;100.00;63355.56;5096454;28;20583;-78
2022/03/25 09:52:52;;;;;;;49.13;25.00;;;;;;;-141.50;100.00;63355.56;5077475;28;20075;-77
2022/03/25 09:55:40;;;;;;;47.72;23.13;;;;;;;-141.50;100.00;63355.56;5094428;28;20052;-79
2022/03/25 09:58:09;;;;;;;45.10;22.30;;;;;;;-141.50;100.00;63355.56;5097584;28;20071;-78
2022/03/25 10:00:35;;;;;;;42.40;21.20;;;;;;;-141.50;100.00;63355.56;5093950;28;20059;-76
2022/03/25 10:03:03;;;;;;;50.13;22.98;;;;;;;-141.50;100.00;63355.56;5092318;28;20052;-78
2022/03/25 10:05:31;;;;;;;47.88;22.15;;;;;;;-141.50;100.00;63355.56;5092655;28;20642;-78
2022/03/25 10:07:58;;;;;;;46.88;21.30;;;;;;;-141.50;100.00;63355.56;5097031;28;20044;-77
2022/03/25 10:10:27;;;;;;;52.08;22.40;;;;;;;-141.50;100.00;63355.56;5093199;28;20059;-78
2022/03/25 10:13:00;;;;;;;43.28;20.08;;;;;;;-141.50;100.00;63355.56;5099099;28;20093;-77
2022/03/25 10:15:30;;;;;;;46.00;19.95;;;;;;;-141.50;100.00;63355.56;5101066;28;20048;-78
2022/03/25 10:18:01;;;;;;;46.33;24.20;;;;;;;-141.50;100.00;63355.56;5092475;28;20048;-79
2022/03/25 10:20:30;;;;;;;42.88;22.50;;;;;;;-141.50;100.00;63355.56;5112212;28;20102;-77
2022/03/25 10:23:11;;;;;;;41.22;19.00;;;;;;;-141.50;100.00;63355.56;5112696;28;20104;-79
2022/03/25 10:25:47;;;;;;;44.17;21.25;;;;;;;-141.50;100.00;63355.56;5111571;28;20083;-79
2022/03/25 10:28:29;;;;;;;37.28;17.27;;;;;;;-141.50;100.00;63355.56;5093709;28;20047;-78
2022/03/25 10:31:01;;;;;;;41.17;17.83;;;;;;;-141.50;100.00;63355.56;5090720;28;20108;-79
2022/03/25 10:33:30;;;;;;;35.47;17.50;;;;;;;-141.50;100.00;63355.56;5090322;28;20440;-77
2022/03/25 10:36:08;;;;;;;33.85;17.00;;;;;;;-141.50;100.00;63355.56;5091162;28;20376;-78
2022/03/25 10:38:58;;;;;;;34.10;15.38;;;;;;;-141.50;100.00;63355.56;5090731;28;20465;-78
2022/03/25 10:41:35;;;;;;;30.30;15.00;;;;;;;-141.50;100.00;63355.56;5089930;28;20500;-78
2022/03/25 10:44:03;;;;;;;32.83;14.80;;;;;;;-141.50;100.00;63355.56;5085621;28;20106;-76
2022/03/25 10:46:39;;;;;;;29.23;16.58;;;;;;;-141.50;100.00;63355.56;5102685;28;20043;-78
2022/03/25 10:49:07;;;;;;;;;;;;;;;-141.50;100.00;63355.56;5119061;28;20441;-78
2022/03/25 10:51:35;;;;;;;28.70;15.52;;;;;;;-141.50;100.00;63355.56;5114226;28;19923;-77
2022/03/25 10:54:07;;;;;;;36.00;17.80;;;;;;;-141.50;100.00;63355.56;5093150;28;20047;-79
2022/03/25 10:56:56;;;;;;;29.50;15.75;;;;;;;-141.50;100.00;63355.56;5111070;28;20441;-78
2022/03/25 10:59:34;;;;;;;25.80;14.63;;;;;;;-141.50;100.00;63355.56;5109111;28;20436;-76
2022/03/25 11:02:04;;;;;;;32.05;16.20;;;;;;;-141.50;100.00;63355.56;5089962;28;20044;-77
2022/03/25 11:04:31;;;;;;;32.33;16.85;;;;;;;-141.50;100.00;63355.56;5073298;28;20067;-79